Time;durP1;ratioP1;P1;durP2;ratioP2;P2;SDS_P1;SDS_P2;PMS_P1;PMS_P2;Temp;Humidity;BMP_temperature;BMP_pressure;BME280_temperature;BME280_humidity;BME280_pressure;Samples;Min_cycle;Max_cycle;Signal;HPM_P1;HPM_P2
2023/11/12 09:06:10;;;;;;;1.70;1.20;;;;;;;6.54;62.77;94095.88;6196126;23;20033;-87
2023/11/12 09:08:37;;;;;;;2.30;1.13;;;;;;;6.84;61.59;94106.19;6104312;23;20043;-87
2023/11/12 09:11:03;;;;;;;2.67;1.30;;;;;;;6.89;61.10;94093.50;6127569;23;20021;-86
2023/11/12 09:13:29;;;;;;;2.58;1.38;;;;;;;6.74;60.04;94101.31;6127695;23;20009;-86
2023/11/12 09:18:33;;;;;;;1.90;1.58;;;;;;;6.19;61.57;94094.84;6178974;23;20024;-85
2023/11/12 09:20:59;;;;;;;2.55;1.75;;;;;;;6.06;62.15;94106.59;6157959;23;20009;-85
2023/11/12 09:23:27;;;;;;;3.22;1.70;;;;;;;6.15;61.84;94107.31;6109597;23;20097;-85
2023/11/12 09:25:52;;;;;;;2.30;1.77;;;;;;;6.19;62.75;94111.13;6133273;23;20017;-85
2023/11/12 09:33:28;;;;;;;9.82;7.20;;;;;;;6.14;62.27;94095.38;6183815;23;20088;-85
2023/11/12 09:35:54;;;;;;;5.05;2.47;;;;;;;6.04;62.28;94100.00;6158027;23;20005;-86
2023/11/12 09:38:20;;;;;;;6.55;5.90;;;;;;;6.11;62.62;94111.22;6108774;23;20005;-87
2023/11/12 09:40:46;;;;;;;4.15;3.35;;;;;;;6.16;62.09;94093.41;6157681;23;20005;-87
2023/11/12 09:43:14;;;;;;;6.95;5.32;;;;;;;6.50;60.95;94104.97;6158303;23;20011;-87
2023/11/12 09:45:44;;;;;;;8.02;5.13;;;;;;;6.30;62.39;94120.22;6134132;23;20012;-87
2023/11/12 10:33:16;;;;;;;70.30;30.63;;;;;;;6.38;63.24;94117.56;6157551;23;20025;-86
2023/11/12 10:35:42;;;;;;;25.70;13.35;;;;;;;6.70;62.24;94113.00;6158054;23;20021;-86
2023/11/12 10:38:09;;;;;;;17.42;8.82;;;;;;;6.87;61.92;94121.31;6157517;23;20013;-86
2023/11/12 10:40:34;;;;;;;13.38;6.65;;;;;;;6.74;60.89;94108.22;6133421;23;20009;-86
2023/11/12 10:43:08;;;;;;;7.22;4.00;;;;;;;6.46;61.80;94114.88;6157058;23;20016;-87
2023/11/12 13:09:58;;;;;;;11.05;6.57;;;;;;;6.69;64.14;94105.41;6210472;23;20017;-86
2023/11/12 13:12:24;;;;;;;5.68;3.50;;;;;;;6.91;63.90;94064.88;6157670;23;20083;-86
2023/11/12 13:14:49;;;;;;;46.80;29.35;;;;;;;6.92;63.96;94087.19;6108529;23;20005;-86
2023/11/12 13:17:16;;;;;;;16.50;9.98;;;;;;;7.13;64.13;94087.19;6157967;23;20019;-86
2023/11/12 13:19:41;;;;;;;8.55;6.28;;;;;;;7.16;63.32;94067.91;6158216;23;20001;-86
2023/11/12 13:35:00;;;;;;;2.00;1.80;;;;;;;7.50;62.31;94069.00;6183394;23;21154;-86
2023/11/12 13:37:28;;;;;;;1.95;1.63;;;;;;;7.69;62.50;94072.75;6133747;23;20016;-86
2023/11/12 13:39:53;;;;;;;1.60;1.50;;;;;;;7.64;63.00;94066.34;6157436;23;20071;-86
2023/11/12 13:47:21;;;;;;;2.67;2.25;;;;;;;7.97;62.08;94090.88;6176610;23;20017;-86
2023/11/12 13:49:48;;;;;;;1.20;1.10;;;;;;;7.91;62.08;94076.09;6133323;23;20023;-86
2023/11/12 14:02:16;;;;;;;2.90;1.70;;;;;;;7.95;63.08;94101.41;6157892;23;20025;-86
2023/11/12 14:04:42;;;;;;;2.55;2.20;;;;;;;8.03;62.38;94092.69;6156892;23;20020;-86
2023/11/12 14:09:36;;;;;;;3.38;3.05;;;;;;;8.01;62.46;94103.28;6132282;23;20028;-88
2023/11/12 14:12:05;;;;;;;4.25;3.72;;;;;;;7.80;63.04;94104.09;6127525;23;20022;-87
2023/11/12 14:14:31;;;;;;;2.45;2.05;;;;;;;8.05;62.62;94115.81;6127242;23;20009;-86
2023/11/12 14:37:31;;;;;;;3.20;1.88;;;;;;;8.25;62.18;94129.72;6174963;23;20083;-86
2023/11/12 14:39:58;;;;;;;6.28;2.90;;;;;;;8.20;62.66;94129.47;6108517;23;20009;-86
2023/11/12 16:33:42;;;;;;;17.88;12.05;;;;;;;8.00;65.51;94209.63;6215886;23;20021;-86
2023/11/12 16:36:08;;;;;;;20.75;16.75;;;;;;;8.03;65.92;94209.22;6161101;23;20067;-86
2023/11/12 16:38:40;;;;;;;23.27;18.38;;;;;;;8.32;64.95;94223.81;6135553;23;20009;-86
2023/11/12 16:41:06;;;;;;;19.05;14.45;;;;;;;8.29;65.37;94223.41;6158486;23;20044;-86
2023/11/12 17:27:26;;;;;;;3.75;2.25;;;;;;;9.97;64.18;94356.47;6159327;23;20009;-86
2023/11/12 17:56:22;;;;;;;0.85;0.60;;;;;;;10.24;64.11;94383.31;6181418;23;20107;-86
2023/11/12 17:58:47;;;;;;;1.23;0.70;;;;;;;10.48;63.83;94389.81;6156689;23;20021;-86
2023/11/12 18:01:13;;;;;;;1.52;0.88;;;;;;;10.80;62.71;94408.28;6132446;23;20009;-86
2023/11/12 18:03:42;;;;;;;2.17;0.90;;;;;;;10.72;63.08;94403.28;6156655;23;20055;-86
2023/11/12 18:06:08;;;;;;;41.83;37.38;;;;;;;10.69;63.97;94407.06;6156853;23;20032;-85
2023/11/12 18:13:37;;;;;;;4.80;2.47;;;;;;;10.70;64.22;94420.84;6144802;23;20025;-86
2023/11/12 18:16:03;;;;;;;3.92;2.63;;;;;;;10.55;64.91;94421.84;6102652;23;20009;-85
2023/11/12 18:18:28;;;;;;;3.60;2.13;;;;;;;10.24;65.89;94434.50;6102601;23;20024;-86
2023/11/12 18:38:50;;;;;;;7.95;5.20;;;;;;;10.53;65.45;94431.63;6181152;23;20029;-86
2023/11/12 18:41:16;;;;;;;8.98;5.75;;;;;;;10.60;65.51;94417.84;6149141;23;20025;-86
2023/11/12 18:43:42;;;;;;;9.70;3.50;;;;;;;10.51;66.17;94432.84;6150577;23;20009;-86
2023/11/12 18:46:08;;;;;;;6.78;3.40;;;;;;;10.58;66.29;94451.84;6109082;23;20009;-86
2023/11/12 19:32:49;;;;;;;8.48;2.80;;;;;;;10.87;65.11;94515.75;6182774;23;20029;-84
2023/11/12 19:35:18;;;;;;;8.75;5.18;;;;;;;11.00;64.27;94516.78;6156206;23;20075;-85
2023/11/12 19:37:44;;;;;;;7.82;4.68;;;;;;;10.91;63.03;94524.75;6155543;23;20008;-85
2023/11/12 21:54:39;;;;;;;5.75;3.38;;;;;;;10.44;63.14;94580.19;6186681;23;20033;-86
2023/11/12 21:57:06;;;;;;;5.72;2.83;;;;;;;10.40;62.37;94579.78;6146355;23;20036;-87
2023/11/12 21:59:33;;;;;;;4.40;3.08;;;;;;;10.51;62.57;94576.63;6157073;23;20355;-86
